Date,TemperatureHighF,TemperatureAvgF,TemperatureLowF,DewpointHighF,DewpointAvgF,DewpointLowF,HumidityHigh,HumidityAvg,HumidityLow,PressureMaxIn,PressureMinIn,WindSpeedMaxMPH,WindSpeedAvgMPH,GustSpeedMaxMPH,PrecipitationSumIn
2013-5-1,43.7,34.4,32.2,37.7,33.4,31.7,98,96,71,30.39,29.86,16,6,17,0.45
2013-5-2,60.6,42.9,31.6,49.5,32.2,22.8,98,71,32,30.51,30.30,12,4,12,0.13
2013-5-3,64.4,45.8,26.2,40.7,24.6,13.7,80,48,24,30.30,30.03,15,3,15,0.00
2013-5-4,62.4,43.8,26.2,26.7,18.3,11.7,55,37,24,30.18,30.03,16,5,16,0.00
2013-5-5,72.1,49.2,26.2,33.1,20.7,13.5,59,36,15,30.18,30.03,12,2,12,0.00
2013-5-6,80.2,58.7,37.4,45.4,31.4,21.6,65,39,20,30.03,29.86,17,3,17,0.00
2013-5-7,74.1,60.0,49.8,52.9,43.7,30.7,79,56,36,29.92,29.71,20,6,20,0.00
2013-5-8,77.5,61.9,48.0,72.0,50.8,40.4,98,72,32,29.83,29.68,17,4,17,0.41
2013-5-9,66.9,56.7,48.2,52.8,45.3,39.8,88,67,46,29.95,29.80,13,5,13,0.00
2013-5-10,80.6,58.6,0.0,59.5,48.9,37.0,88,72,35,30.01,29.89,17,2,17,0.21
2013-5-11,72.5,59.7,0.0,55.7,46.3,26.2,86,67,24,30.27,29.92,15,1,15,0.21
2013-5-12,82.8,60.8,41.5,46.9,35.6,26.4,60,41,23,30.15,29.89,10,3,10,0.00
2013-5-13,99.0,72.8,48.7,54.7,44.2,37.0,75,42,16,29.92,29.71,11,2,11,0.00
2013-5-14,100.9,78.4,55.4,52.6,41.9,31.2,56,32,10,29.71,29.56,14,4,14,0.00
2013-5-15,84.9,70.4,61.0,40.5,36.9,34.1,39,30,20,29.80,29.65,19,6,19,0.00
2013-5-16,86.9,63.2,56.1,64.7,47.8,34.0,85,59,36,29.77,29.56,20,3,20,0.05
2013-5-17,90.5,71.1,50.5,63.1,53.5,46.7,89,59,28,29.71,29.56,22,4,22,0.00
2013-5-18,83.5,71.2,59.0,68.0,60.6,48.7,83,70,54,29.65,29.44,33,6,33,0.00
2013-5-19,71.2,59.2,54.3,67.4,55.3,51.0,98,87,67,29.59,29.44,20,4,20,0.24
2013-5-20,68.7,57.3,51.6,60.2,50.6,42.7,98,80,45,29.62,29.47,26,8,26,0.17
2013-5-21,64.6,54.3,47.5,48.0,42.5,39.3,89,66,44,29.77,29.59,26,8,26,0.00
2013-5-22,76.3,58.1,47.8,49.9,44.6,40.3,80,63,38,29.92,29.71,14,5,14,0.00
2013-5-23,71.1,59.1,45.1,48.6,45.1,39.7,83,62,43,30.03,29.92,17,5,17,0.00
2013-5-24,79.3,64.0,55.8,60.6,53.9,45.3,89,71,47,29.95,29.71,24,8,24,0.04
2013-5-25,90.9,73.1,58.6,64.4,57.7,47.8,89,61,37,29.83,29.56,15,5,15,0.04
2013-5-26,89.2,75.6,63.5,66.9,61.4,47.2,86,63,40,29.66,29.50,14,4,14,0.00
2013-5-27,74.8,65.5,0.0,69.5,61.8,52.6,98,87,72,29.81,29.60,16,4,16,0.33
2013-5-28,83.1,66.6,0.0,75.1,59.3,51.4,98,79,46,29.81,29.55,17,3,17,0.00
2013-5-29,82.9,62.2,55.2,67.1,56.3,50.7,98,82,58,29.69,29.31,22,4,22,0.25
2013-5-30,82.2,64.6,50.5,71.0,52.0,37.2,98,70,25,29.66,29.49,22,4,22,0.04
2013-5-31,75.9,61.8,48.0,52.2,41.6,38.1,75,50,30,29.84,29.66,27,8,27,0.00